createdAt,value
2023-05-08T00:00:42.373Z,12.3
2023-05-08T00:15:44.143Z,12
2023-05-08T00:30:55.372Z,12
2023-05-08T00:45:46.291Z,12
2023-05-08T01:00:46.384Z,11.8
2023-05-08T01:15:46.253Z,12.1
2023-05-08T01:30:46.878Z,11.9
2023-05-08T01:45:47.035Z,12.1
2023-05-08T02:00:49.084Z,11.8
2023-05-08T02:15:48.656Z,11.9
2023-05-08T02:30:49.444Z,11.7
2023-05-08T02:45:51.414Z,11.6
2023-05-08T03:00:50.683Z,11.7
2023-05-08T03:15:51.477Z,11.7
2023-05-08T03:30:52.736Z,11.7
2023-05-08T03:46:04.608Z,11.7
2023-05-08T04:00:51.834Z,11.6
2023-05-08T04:15:49.994Z,11.7
2023-05-08T04:30:45.550Z,11.5
2023-05-08T05:45:50.845Z,11.7
2023-05-08T06:15:52.124Z,12.2
2023-05-08T06:30:51.844Z,12.4
2023-05-08T06:45:54.366Z,12.4
2023-05-08T07:00:53.524Z,12.5
2023-05-08T07:15:56.003Z,12.9
2023-05-08T07:30:54.986Z,12.7
2023-05-08T07:45:55.598Z,12.9
2023-05-08T08:00:57.132Z,13.1
2023-05-08T08:15:56.511Z,13.3
2023-05-08T08:30:57.532Z,13.8
2023-05-08T08:45:59.936Z,14.2
2023-05-08T09:00:58.568Z,14.4
2023-05-08T09:16:00.481Z,14.9
2023-05-08T09:31:00.362Z,15
2023-05-08T09:46:00.846Z,15.8
2023-05-08T10:01:03.060Z,16.5
2023-05-08T10:16:02.816Z,16.8
2023-05-08T10:31:04.250Z,16.9
2023-05-08T10:46:06.547Z,17.2
2023-05-08T11:01:08.402Z,17.2
2023-05-08T11:16:05.084Z,18.1
2023-05-08T11:31:06.698Z,17.7
2023-05-08T11:46:06.743Z,17.5
2023-05-08T12:01:07.902Z,15.9
2023-05-08T12:16:08.162Z,15.3
2023-05-08T12:31:08.535Z,15.7
2023-05-08T12:46:08.673Z,15.9
2023-05-08T13:01:09.349Z,15.7
2023-05-08T13:16:09.954Z,16.3
2023-05-08T13:31:10.642Z,17.4
2023-05-08T13:46:11.909Z,17.4
2023-05-08T14:01:27.538Z,17.1
2023-05-08T14:16:13.499Z,16.8
2023-05-08T14:31:13.028Z,16.6
2023-05-08T14:46:13.900Z,16.8
2023-05-08T15:01:14.070Z,16.5
2023-05-08T15:16:17.111Z,16.5
2023-05-08T15:31:15.651Z,15.7
2023-05-08T15:46:16.877Z,15.5
